createdAt,value
2022-11-19T00:01:14.415Z,-0.90
2022-11-19T00:02:51.898Z,-0.89
2022-11-19T00:05:17.028Z,-0.87
2022-11-19T00:07:08.175Z,-0.87
2022-11-19T00:11:09.464Z,-0.79
2022-11-19T00:12:54.231Z,-0.75
2022-11-19T00:14:35.823Z,-0.71
2022-11-19T00:16:34.438Z,-0.67
2022-11-19T00:18:19.356Z,-0.60
2022-11-19T00:20:17.259Z,-0.54
2022-11-19T00:22:11.688Z,-0.49
2022-11-19T00:27:18.100Z,-0.34
2022-11-19T00:28:41.803Z,-0.29
2022-11-19T00:30:19.942Z,-0.25
2022-11-19T00:32:25.673Z,-0.20
2022-11-19T00:33:59.580Z,-0.15
2022-11-19T00:35:44.619Z,-0.11
2022-11-19T00:37:24.792Z,-0.07
2022-11-19T00:39:12.996Z,-0.04
2022-11-19T00:42:30.536Z,-0.01
2022-11-19T00:43:14.153Z,0.05
2022-11-19T00:47:06.695Z,0.12
2022-11-19T00:48:31.807Z,0.14
2022-11-19T00:50:01.646Z,0.15
2022-11-19T00:51:39.725Z,0.18
2022-11-19T00:53:03.220Z,0.21
2022-11-19T00:54:33.690Z,0.24
2022-11-19T00:56:03.764Z,0.27
2022-11-19T00:57:27.992Z,0.30
2022-11-19T00:58:58.105Z,0.31
2022-11-19T01:00:23.459Z,0.33
2022-11-19T01:01:55.955Z,0.35
2022-11-19T01:03:29.530Z,0.36
2022-11-19T01:05:07.040Z,0.37
2022-11-19T01:06:36.525Z,0.37
2022-11-19T01:08:05.504Z,0.40
2022-11-19T01:09:30.994Z,0.40
2022-11-19T01:10:54.913Z,0.40
2022-11-19T01:12:24.505Z,0.40
2022-11-19T01:13:59.586Z,0.40
2022-11-19T01:15:26.031Z,0.39
2022-11-19T01:16:54.835Z,0.40
2022-11-19T01:18:18.088Z,0.41
2022-11-19T01:19:56.582Z,0.42
2022-11-19T01:21:25.770Z,0.41
2022-11-19T01:22:51.878Z,0.40
2022-11-19T01:24:14.723Z,0.40
2022-11-19T01:25:39.806Z,0.38
2022-11-19T01:27:02.207Z,0.40
2022-11-19T01:28:23.278Z,0.39
2022-11-19T01:29:47.834Z,0.40
2022-11-19T01:31:12.552Z,0.40
2022-11-19T01:32:39.532Z,0.40
2022-11-19T01:34:02.194Z,0.39
2022-11-19T01:35:28.819Z,0.40
2022-11-19T01:36:51.332Z,0.39
2022-11-19T01:38:15.135Z,0.40
2022-11-19T01:39:37.315Z,0.39
2022-11-19T01:40:58.560Z,0.36
2022-11-19T01:42:40.914Z,0.35
2022-11-19T01:44:05.188Z,0.35
2022-11-19T01:45:33.436Z,0.35
2022-11-19T01:46:58.222Z,0.35
2022-11-19T01:48:25.600Z,0.36
2022-11-19T01:49:46.603Z,0.36
2022-11-19T01:51:16.071Z,0.35
2022-11-19T01:52:36.867Z,0.34
2022-11-19T01:54:01.848Z,0.33
2022-11-19T01:55:24.531Z,0.33
2022-11-19T01:56:46.872Z,0.32
2022-11-19T01:58:08.031Z,0.29
2022-11-19T01:59:32.640Z,0.29
2022-11-19T02:00:53.593Z,0.28
2022-11-19T02:02:15.532Z,0.27
2022-11-19T02:03:42.215Z,0.27
2022-11-19T02:05:05.643Z,0.29
2022-11-19T02:06:33.104Z,0.29
2022-11-19T02:07:57.086Z,0.32
2022-11-19T02:09:19.869Z,0.34
2022-11-19T02:10:52.968Z,0.35
2022-11-19T02:12:26.149Z,0.35
2022-11-19T02:14:03.081Z,0.35
2022-11-19T02:15:39.832Z,0.33
2022-11-19T02:17:11.934Z,0.32
2022-11-19T02:18:44.031Z,0.34
2022-11-19T02:20:32.092Z,0.35
2022-11-19T02:22:13.413Z,0.37
2022-11-19T02:24:02.727Z,0.38
2022-11-19T02:25:39.841Z,0.41
2022-11-19T02:27:34.208Z,0.44
2022-11-19T02:29:11.111Z,0.47
2022-11-19T02:30:38.873Z,0.48
2022-11-19T02:32:05.144Z,0.50
2022-11-19T02:33:37.465Z,0.53
2022-11-19T02:35:02.270Z,0.55
2022-11-19T02:36:28.245Z,0.57
2022-11-19T02:37:58.906Z,0.59
2022-11-19T02:39:33.755Z,0.61
2022-11-19T02:40:59.767Z,0.62
2022-11-19T02:42:28.550Z,0.64
2022-11-19T02:44:21.287Z,0.65
2022-11-19T02:45:49.253Z,0.66
2022-11-19T02:47:20.416Z,0.66
2022-11-19T02:48:48.299Z,0.66
2022-11-19T02:50:12.828Z,0.66
2022-11-19T02:51:39.238Z,0.64
2022-11-19T02:53:08.144Z,0.66
2022-11-19T02:54:36.596Z,0.66
2022-11-19T02:56:18.189Z,0.68
2022-11-19T02:57:42.936Z,0.69
2022-11-19T02:59:26.556Z,0.67
2022-11-19T03:01:10.591Z,0.67
2022-11-19T03:02:55.838Z,0.65
2022-11-19T03:04:33.125Z,0.63
2022-11-19T03:06:15.699Z,0.62
2022-11-19T03:07:45.310Z,0.61
2022-11-19T03:09:09.327Z,0.59
2022-11-19T03:10:41.392Z,0.58
2022-11-19T03:12:11.853Z,0.53
2022-11-19T03:14:00.700Z,0.51
2022-11-19T03:15:56.324Z,0.50
2022-11-19T03:17:26.975Z,0.49
2022-11-19T03:18:56.006Z,0.49
2022-11-19T03:20:33.206Z,0.47
2022-11-19T03:22:01.157Z,0.47
2022-11-19T03:23:36.738Z,0.45
2022-11-19T03:25:15.075Z,0.43
2022-11-19T03:26:43.602Z,0.44
2022-11-19T03:28:21.175Z,0.43
2022-11-19T03:30:17.175Z,0.41
2022-11-19T03:32:21.302Z,0.42
2022-11-19T03:34:15.330Z,0.42
2022-11-19T03:35:48.309Z,0.42
2022-11-19T03:37:19.936Z,0.41
2022-11-19T03:38:44.993Z,0.41
2022-11-19T03:40:16.237Z,0.41
2022-11-19T03:41:40.847Z,0.40
2022-11-19T03:43:09.273Z,0.40
2022-11-19T03:44:40.084Z,0.41
2022-11-19T03:46:04.753Z,0.40
2022-11-19T03:47:35.481Z,0.42
2022-11-19T03:49:01.493Z,0.41
2022-11-19T03:50:30.145Z,0.40
2022-11-19T03:51:57.916Z,0.40
2022-11-19T03:53:22.112Z,0.39
2022-11-19T03:54:43.875Z,0.38
2022-11-19T03:56:10.727Z,0.37
2022-11-19T03:57:34.460Z,0.35
2022-11-19T03:58:59.123Z,0.33
2022-11-19T04:00:21.678Z,0.31
2022-11-19T04:01:45.153Z,0.28
2022-11-19T04:03:15.245Z,0.25
2022-11-19T04:04:38.889Z,0.22
2022-11-19T04:06:01.558Z,0.19
2022-11-19T04:07:25.300Z,0.17
2022-11-19T04:08:47.672Z,0.14
2022-11-19T04:10:10.372Z,0.10
2022-11-19T04:11:31.461Z,0.09
2022-11-19T04:12:53.764Z,0.05
2022-11-19T04:14:14.495Z,0.01
2022-11-19T04:15:36.585Z,-0.03
2022-11-19T04:16:57.800Z,-0.06
2022-11-19T04:18:20.346Z,-0.08
2022-11-19T04:19:44.649Z,-0.13
2022-11-19T04:21:05.780Z,-0.14
2022-11-19T04:22:28.427Z,-0.17
2022-11-19T04:23:49.648Z,-0.20
2022-11-19T04:25:12.064Z,-0.22
2022-11-19T04:26:33.097Z,-0.25
2022-11-19T04:27:59.263Z,-0.27
2022-11-19T04:29:25.426Z,-0.28
2022-11-19T04:30:47.804Z,-0.32
2022-11-19T04:32:09.136Z,-0.34
2022-11-19T04:33:31.691Z,-0.35
2022-11-19T04:34:55.732Z,-0.38
2022-11-19T04:36:17.155Z,-0.39
2022-11-19T04:37:39.500Z,-0.43
2022-11-19T04:39:01.116Z,-0.44
2022-11-19T04:40:23.287Z,-0.45
2022-11-19T04:41:45.460Z,-0.47
2022-11-19T04:43:06.644Z,-0.49
2022-11-19T04:44:29.495Z,-0.50
2022-11-19T04:45:50.632Z,-0.51
2022-11-19T04:47:13.094Z,-0.52
2022-11-19T04:48:34.533Z,-0.53
2022-11-19T04:49:58.522Z,-0.54
2022-11-19T04:51:20.121Z,-0.55
2022-11-19T04:52:42.559Z,-0.56
2022-11-19T04:54:04.185Z,-0.56
2022-11-19T04:55:26.473Z,-0.57
2022-11-19T04:56:48.861Z,-0.58
2022-11-19T04:58:10.812Z,-0.58
2022-11-19T04:59:33.241Z,-0.57
2022-11-19T05:00:54.013Z,-0.59
2022-11-19T05:02:16.090Z,-0.60
2022-11-19T05:03:38.167Z,-0.61
2022-11-19T05:05:00.676Z,-0.62
2022-11-19T05:06:22.656Z,-0.64
2022-11-19T05:07:43.806Z,-0.67
2022-11-19T05:09:08.057Z,-0.69
2022-11-19T05:10:29.280Z,-0.71
2022-11-19T05:11:51.845Z,-0.72
2022-11-19T05:13:13.573Z,-0.73
2022-11-19T05:14:38.512Z,-0.74
2022-11-19T05:16:01.027Z,-0.75
2022-11-19T05:17:22.312Z,-0.77
2022-11-19T05:18:44.598Z,-0.78
2022-11-19T05:20:09.397Z,-0.79
2022-11-19T05:21:31.791Z,-0.80
2022-11-19T05:22:53.032Z,-0.81
2022-11-19T05:24:15.762Z,-0.83
2022-11-19T05:25:36.925Z,-0.82
2022-11-19T05:26:59.361Z,-0.84
2022-11-19T05:28:37.510Z,-0.85
2022-11-19T05:30:01.066Z,-0.86
2022-11-19T05:31:23.625Z,-0.87
2022-11-19T05:32:45.159Z,-0.89
2022-11-19T05:34:07.524Z,-0.89
2022-11-19T05:35:31.179Z,-0.91
2022-11-19T05:36:52.497Z,-0.91
2022-11-19T05:38:14.967Z,-0.92
2022-11-19T05:39:35.948Z,-0.93
2022-11-19T05:40:58.175Z,-0.95
2022-11-19T05:42:18.757Z,-0.97
2022-11-19T05:43:40.768Z,-0.98
2022-11-19T05:45:02.551Z,-1.00
2022-11-19T05:46:24.868Z,-1.01
2022-11-19T05:47:48.733Z,-1.03
2022-11-19T05:49:12.658Z,-1.03
2022-11-19T05:50:36.789Z,-1.05
2022-11-19T05:51:57.874Z,-1.05
2022-11-19T05:53:20.145Z,-1.07
2022-11-19T05:54:41.923Z,-1.10
2022-11-19T05:56:04.663Z,-1.10
2022-11-19T05:57:27.757Z,-1.10
2022-11-19T05:58:51.279Z,-1.11
2022-11-19T06:00:16.838Z,-1.11
2022-11-19T06:01:39.559Z,-1.13
2022-11-19T06:03:04.204Z,-1.13
2022-11-19T06:04:28.203Z,-1.13
2022-11-19T06:05:58.244Z,-1.14
2022-11-19T06:07:19.741Z,-1.15
2022-11-19T06:08:45.713Z,-1.16
2022-11-19T06:10:09.224Z,-1.16
2022-11-19T06:11:51.672Z,-1.17
2022-11-19T06:13:14.004Z,-1.17
2022-11-19T06:14:37.555Z,-1.18
2022-11-19T06:16:00.038Z,-1.18
2022-11-19T06:17:22.092Z,-1.19
2022-11-19T06:18:44.256Z,-1.17
2022-11-19T06:20:09.004Z,-1.20
2022-11-19T06:21:33.433Z,-1.19
2022-11-19T06:22:55.737Z,-1.19
2022-11-19T06:24:17.559Z,-1.19
2022-11-19T06:25:39.783Z,-1.19
2022-11-19T06:27:00.726Z,-1.20
2022-11-19T06:28:23.166Z,-1.19
2022-11-19T06:29:45.545Z,-1.19
2022-11-19T06:31:11.352Z,-1.18
2022-11-19T06:32:33.689Z,-1.18
2022-11-19T06:33:56.257Z,-1.20
2022-11-19T06:35:43.435Z,-1.19
2022-11-19T06:37:20.028Z,-1.18
2022-11-19T06:38:43.862Z,-1.18
2022-11-19T06:40:10.431Z,-1.16
2022-11-19T06:41:33.494Z,-1.17
2022-11-19T06:42:55.969Z,-1.14
2022-11-19T06:44:20.660Z,-1.13
2022-11-19T06:45:50.265Z,-1.12
2022-11-19T06:47:14.479Z,-1.11
2022-11-19T06:48:40.448Z,-1.07
2022-11-19T06:50:05.437Z,-1.06
2022-11-19T06:51:32.722Z,-1.05
2022-11-19T06:52:56.960Z,-1.01
2022-11-19T06:54:18.389Z,-0.99
2022-11-19T06:55:41.119Z,-0.97
2022-11-19T06:57:09.080Z,-0.94
2022-11-19T06:58:32.484Z,-0.91
2022-11-19T07:00:12.887Z,-0.90
2022-11-19T07:01:41.193Z,-0.87
2022-11-19T07:03:06.860Z,-0.84
2022-11-19T07:04:38.097Z,-0.81
2022-11-19T07:06:06.572Z,-0.78
2022-11-19T07:07:32.334Z,-0.76
2022-11-19T07:08:57.241Z,-0.72
2022-11-19T07:10:30.361Z,-0.68
2022-11-19T07:12:09.700Z,-0.66
2022-11-19T07:14:16.599Z,-0.61
2022-11-19T07:15:49.334Z,-0.56
2022-11-19T07:17:28.299Z,-0.53
2022-11-19T07:19:23.882Z,-0.48
2022-11-19T07:21:03.257Z,-0.45
2022-11-19T07:22:26.183Z,-0.40
2022-11-19T07:23:50.631Z,-0.38
2022-11-19T07:25:17.850Z,-0.34
2022-11-19T07:26:40.435Z,-0.31
2022-11-19T07:28:12.948Z,-0.29
2022-11-19T07:29:49.551Z,-0.25
2022-11-19T07:31:20.348Z,-0.22
2022-11-19T07:33:19.491Z,-0.18
2022-11-19T07:34:46.491Z,-0.14
2022-11-19T07:36:34.698Z,-0.11
2022-11-19T07:38:04.295Z,-0.08
2022-11-19T07:39:29.819Z,-0.05
2022-11-19T07:40:56.363Z,-0.02
2022-11-19T07:42:35.942Z,0.02
2022-11-19T07:44:02.521Z,0.05
2022-11-19T07:45:36.237Z,0.07
2022-11-19T07:46:58.633Z,0.09
2022-11-19T07:48:25.297Z,0.11
2022-11-19T07:49:51.235Z,0.14
2022-11-19T07:51:21.450Z,0.15
2022-11-19T07:52:46.212Z,0.17
2022-11-19T07:54:22.047Z,0.19
2022-11-19T07:55:51.444Z,0.21
2022-11-19T07:57:15.235Z,0.23
2022-11-19T07:58:37.564Z,0.26
2022-11-19T08:00:00.029Z,0.29
2022-11-19T08:01:24.717Z,0.31
2022-11-19T08:02:50.781Z,0.31
2022-11-19T08:04:14.420Z,0.33
2022-11-19T08:05:40.663Z,0.34
2022-11-19T08:07:45.588Z,0.35
2022-11-19T08:09:49.402Z,0.41
2022-11-19T08:11:49.057Z,1.21
2022-11-19T08:13:19.300Z,1.99
2022-11-19T08:14:41.631Z,2.30
2022-11-19T08:16:04.919Z,2.73
2022-11-19T08:17:47.863Z,3.12
2022-11-19T08:19:11.717Z,3.53
2022-11-19T08:20:38.858Z,3.90
2022-11-19T08:22:09.742Z,4.28
2022-11-19T08:23:39.473Z,4.67
2022-11-19T08:25:21.976Z,5.05
2022-11-19T08:26:55.562Z,5.40
2022-11-19T08:28:50.055Z,5.70
2022-11-19T08:30:27.296Z,6.11
2022-11-19T08:32:00.057Z,6.48
2022-11-19T08:33:24.796Z,7.01
2022-11-19T08:34:55.811Z,7.74
2022-11-19T08:36:24.312Z,8.59
2022-11-19T08:37:50.995Z,9.42
2022-11-19T08:39:13.610Z,10.18
2022-11-19T08:40:39.208Z,10.88
2022-11-19T08:42:18.384Z,11.49
2022-11-19T08:43:41.276Z,12.15
2022-11-19T08:45:08.702Z,12.62
2022-11-19T08:46:30.769Z,13.04
2022-11-19T08:47:53.025Z,13.41
2022-11-19T08:49:15.080Z,13.74
2022-11-19T08:50:37.283Z,14.05
2022-11-19T08:52:00.499Z,14.27
2022-11-19T08:53:22.700Z,14.48
2022-11-19T08:54:45.127Z,14.66
2022-11-19T08:56:14.000Z,14.84
2022-11-19T08:57:40.077Z,15.02
2022-11-19T08:59:06.239Z,15.14
2022-11-19T09:00:43.225Z,15.29
2022-11-19T09:02:08.247Z,15.47
2022-11-19T09:03:31.074Z,15.62
2022-11-19T09:04:56.192Z,15.79
2022-11-19T09:06:19.889Z,15.99
2022-11-19T09:07:42.035Z,16.04
2022-11-19T09:09:04.534Z,16.07
2022-11-19T09:10:27.308Z,16.18
2022-11-19T09:11:56.186Z,16.31
2022-11-19T09:13:21.545Z,16.46
2022-11-19T09:14:45.523Z,16.63
2022-11-19T09:16:08.911Z,16.75
2022-11-19T09:17:31.148Z,16.89
2022-11-19T09:18:53.547Z,17.03
2022-11-19T09:20:15.957Z,17.08
2022-11-19T09:21:38.475Z,16.92
2022-11-19T09:23:01.697Z,16.43
2022-11-19T09:24:24.042Z,16.00
2022-11-19T09:25:46.250Z,15.66
2022-11-19T09:27:08.561Z,15.34
2022-11-19T09:28:31.967Z,15.05
2022-11-19T09:29:55.683Z,14.80
2022-11-19T09:31:21.494Z,14.56
2022-11-19T09:32:51.306Z,14.37
2022-11-19T09:34:15.301Z,14.20
2022-11-19T09:35:38.016Z,14.02
2022-11-19T09:37:00.139Z,13.79
2022-11-19T09:38:22.208Z,13.53
2022-11-19T09:39:44.488Z,13.26
2022-11-19T09:41:39.843Z,12.97
2022-11-19T09:43:13.971Z,12.59
2022-11-19T09:44:52.048Z,12.25
2022-11-19T09:46:24.105Z,11.96
2022-11-19T09:48:08.299Z,11.65
2022-11-19T09:49:39.992Z,11.35
2022-11-19T09:51:05.942Z,11.03
2022-11-19T09:52:35.114Z,10.68
2022-11-19T09:54:02.352Z,10.37
2022-11-19T09:55:30.827Z,10.09
2022-11-19T09:56:59.256Z,9.83
2022-11-19T09:58:28.856Z,9.59
2022-11-19T09:59:57.753Z,9.34
2022-11-19T10:01:24.116Z,9.11
2022-11-19T10:02:46.302Z,8.88
2022-11-19T10:04:08.513Z,8.65
2022-11-19T10:05:40.026Z,8.40
2022-11-19T10:07:13.430Z,8.14
2022-11-19T10:08:49.815Z,7.91
2022-11-19T10:10:29.202Z,7.69
2022-11-19T10:12:03.295Z,7.52
2022-11-19T10:13:51.356Z,7.36
2022-11-19T10:15:23.682Z,7.20
2022-11-19T10:16:57.856Z,7.08
2022-11-19T10:18:32.533Z,6.93
2022-11-19T10:20:12.959Z,6.75
2022-11-19T10:21:41.228Z,6.56
2022-11-19T10:23:18.473Z,6.40
2022-11-19T10:24:49.298Z,6.23
2022-11-19T10:26:21.187Z,6.06
2022-11-19T10:27:47.609Z,5.90
2022-11-19T10:29:27.286Z,5.72
2022-11-19T10:30:57.214Z,5.57
2022-11-19T10:32:34.236Z,5.39
2022-11-19T10:34:12.341Z,5.23
2022-11-19T10:35:45.558Z,5.04
2022-11-19T10:37:17.016Z,4.88
2022-11-19T10:38:57.488Z,4.70
2022-11-19T10:40:26.238Z,4.54
2022-11-19T10:41:53.551Z,4.41
2022-11-19T10:43:26.575Z,4.30
2022-11-19T10:44:56.982Z,4.19
2022-11-19T10:46:40.569Z,4.09
2022-11-19T10:50:28.118Z,3.94
2022-11-19T10:52:02.554Z,3.86
2022-11-19T10:53:32.453Z,3.82
2022-11-19T10:55:22.934Z,3.79
2022-11-19T10:56:46.166Z,3.73
2022-11-19T10:58:24.848Z,3.70
2022-11-19T10:59:52.482Z,3.65
2022-11-19T11:01:27.242Z,3.60
2022-11-19T11:02:54.824Z,3.59
2022-11-19T11:04:29.642Z,3.56
2022-11-19T11:06:05.733Z,3.54
2022-11-19T11:07:56.056Z,3.50
2022-11-19T11:09:40.048Z,3.49
2022-11-19T11:11:04.614Z,3.48
2022-11-19T11:12:50.829Z,3.46
2022-11-19T11:14:41.895Z,3.43
2022-11-19T11:16:47.378Z,3.39
2022-11-19T11:18:47.771Z,3.38
2022-11-19T11:20:49.611Z,3.37
2022-11-19T11:22:15.327Z,3.37
2022-11-19T11:23:52.670Z,3.39
2022-11-19T11:25:46.542Z,3.42
2022-11-19T11:27:28.258Z,3.45
2022-11-19T11:29:00.821Z,3.45
2022-11-19T11:30:24.053Z,3.45
2022-11-19T11:31:53.157Z,3.44
2022-11-19T11:33:45.254Z,3.43
2022-11-19T11:35:37.871Z,3.43
2022-11-19T11:37:17.323Z,3.43
2022-11-19T11:39:00.329Z,3.42
2022-11-19T11:40:41.283Z,3.42
2022-11-19T11:42:17.992Z,3.43
2022-11-19T11:45:39.547Z,3.36
2022-11-19T11:47:05.246Z,3.33
2022-11-19T11:48:46.577Z,3.28
2022-11-19T11:50:50.745Z,3.26
2022-11-19T11:52:29.973Z,3.23
2022-11-19T11:54:24.105Z,3.24
2022-11-19T11:56:12.193Z,3.22
2022-11-19T11:57:38.448Z,3.22
2022-11-19T11:59:42.866Z,3.20
2022-11-19T12:01:24.558Z,3.19
2022-11-19T12:03:04.916Z,3.17
2022-11-19T12:04:30.175Z,3.14
2022-11-19T12:06:12.614Z,3.14
2022-11-19T12:07:56.415Z,3.11
2022-11-19T12:09:29.820Z,3.09
2022-11-19T12:10:59.012Z,3.08
2022-11-19T12:12:31.849Z,3.06
2022-11-19T12:13:59.999Z,3.04
2022-11-19T12:15:31.280Z,3.04
2022-11-19T12:17:14.560Z,3.02
2022-11-19T12:18:47.585Z,3.02
2022-11-19T12:20:25.263Z,3.02
2022-11-19T12:24:38.384Z,2.96
2022-11-19T12:26:13.185Z,2.91
2022-11-19T12:27:42.944Z,2.87
2022-11-19T12:29:21.109Z,2.80
2022-11-19T12:30:55.970Z,2.79
2022-11-19T12:32:31.439Z,2.75
2022-11-19T12:34:10.932Z,2.72
2022-11-19T12:35:51.245Z,2.69
2022-11-19T12:37:29.026Z,2.68
2022-11-19T12:39:03.263Z,2.67
2022-11-19T12:40:40.876Z,2.69
2022-11-19T12:42:27.759Z,2.70
2022-11-19T12:43:58.804Z,2.69
2022-11-19T12:45:36.415Z,2.69
2022-11-19T12:47:10.667Z,2.68
2022-11-19T12:48:49.987Z,2.66
2022-11-19T12:50:25.856Z,2.62
2022-11-19T12:52:00.765Z,2.62
2022-11-19T12:53:39.493Z,2.61
2022-11-19T12:55:10.534Z,2.59
2022-11-19T12:56:48.096Z,2.57
2022-11-19T12:58:20.063Z,2.54
2022-11-19T13:00:03.749Z,2.54
2022-11-19T13:01:28.927Z,2.54
2022-11-19T13:03:09.442Z,2.55
2022-11-19T13:04:42.696Z,2.56
2022-11-19T13:06:16.727Z,2.57
2022-11-19T13:07:55.784Z,2.59
2022-11-19T13:09:32.162Z,2.57
2022-11-19T13:11:09.005Z,2.56
2022-11-19T13:12:39.298Z,2.54
2022-11-19T13:14:08.278Z,2.53
2022-11-19T13:15:37.268Z,2.52
2022-11-19T13:17:01.544Z,2.51
2022-11-19T13:18:25.934Z,2.49
2022-11-19T13:19:53.427Z,2.49
2022-11-19T13:21:22.736Z,2.45
2022-11-19T13:22:48.914Z,2.43
2022-11-19T13:24:23.716Z,2.41
2022-11-19T13:25:52.204Z,2.37
2022-11-19T13:27:22.949Z,2.34
2022-11-19T13:28:51.729Z,2.30
2022-11-19T13:30:21.850Z,2.26
2022-11-19T13:31:48.969Z,2.23
2022-11-19T13:33:19.366Z,2.21
2022-11-19T13:34:49.610Z,2.18
2022-11-19T13:36:20.086Z,2.14
2022-11-19T13:37:51.685Z,2.10
2022-11-19T13:39:27.905Z,2.07
2022-11-19T13:40:55.672Z,2.04
2022-11-19T13:42:40.296Z,2.02
2022-11-19T13:44:24.930Z,1.97
2022-11-19T13:45:55.556Z,1.95
2022-11-19T13:47:25.043Z,1.94
2022-11-19T13:48:56.857Z,1.91
2022-11-19T13:50:24.087Z,1.92
2022-11-19T13:52:12.210Z,1.90
2022-11-19T13:53:40.301Z,1.88
2022-11-19T13:55:03.037Z,1.86
2022-11-19T13:56:38.319Z,1.86
2022-11-19T13:58:13.023Z,1.83
2022-11-19T13:59:40.966Z,1.81
2022-11-19T14:01:21.957Z,1.81
2022-11-19T14:03:18.547Z,1.77
2022-11-19T14:05:07.052Z,1.73
2022-11-19T14:06:46.063Z,1.68
2022-11-19T14:08:36.856Z,1.63
2022-11-19T14:10:10.626Z,1.59
2022-11-19T14:12:10.521Z,1.53
2022-11-19T14:13:47.235Z,1.49
2022-11-19T14:16:02.656Z,1.45
2022-11-19T14:17:59.708Z,1.41
2022-11-19T14:19:47.595Z,1.36
2022-11-19T14:22:11.426Z,1.31
2022-11-19T14:24:01.613Z,1.27
2022-11-19T14:26:01.140Z,1.23
2022-11-19T14:27:30.803Z,1.20
2022-11-19T14:28:54.433Z,1.16
2022-11-19T14:30:20.283Z,1.14
2022-11-19T14:32:15.803Z,1.11
2022-11-19T14:34:00.061Z,1.06
2022-11-19T14:35:45.103Z,1.03
2022-11-19T14:37:20.729Z,1.00
2022-11-19T14:38:48.986Z,0.97
2022-11-19T14:40:27.217Z,0.95
2022-11-19T14:42:17.652Z,0.92
2022-11-19T14:44:10.245Z,0.88
2022-11-19T14:45:38.427Z,0.85
2022-11-19T14:47:39.954Z,0.82
2022-11-19T14:49:23.055Z,0.80
2022-11-19T14:50:45.504Z,0.76
2022-11-19T14:52:23.212Z,0.74
2022-11-19T14:53:52.408Z,0.70
2022-11-19T14:55:23.001Z,0.66
2022-11-19T14:57:01.670Z,0.64
2022-11-19T14:58:32.424Z,0.61
2022-11-19T14:59:59.458Z,0.58
2022-11-19T15:01:23.884Z,0.55
2022-11-19T15:02:53.342Z,0.53
2022-11-19T15:04:20.258Z,0.50
2022-11-19T15:05:51.069Z,0.47
2022-11-19T15:07:20.713Z,0.45
2022-11-19T15:08:57.056Z,0.40
2022-11-19T15:10:51.618Z,0.38
2022-11-19T15:15:06.747Z,0.30
2022-11-19T15:16:40.820Z,0.28
2022-11-19T15:18:39.867Z,0.25
2022-11-19T15:20:33.296Z,0.20
2022-11-19T15:23:02.941Z,0.17
2022-11-19T15:25:34.450Z,0.13
2022-11-19T15:27:15.330Z,0.09
2022-11-19T15:29:08.142Z,0.07
2022-11-19T15:31:12.884Z,0.02
2022-11-19T15:33:19.257Z,-0.02
2022-11-19T15:35:10.737Z,-0.05
2022-11-19T15:36:39.813Z,-0.06
2022-11-19T15:38:08.776Z,-0.08
2022-11-19T15:39:39.843Z,-0.10
2022-11-19T15:41:05.175Z,-0.12
2022-11-19T15:42:35.856Z,-0.13
2022-11-19T15:44:09.225Z,-0.13
2022-11-19T15:46:12.085Z,-0.15
2022-11-19T15:47:49.908Z,-0.17
2022-11-19T15:51:38.867Z,-0.20
2022-11-19T15:53:33.891Z,-0.23
2022-11-19T15:55:28.439Z,-0.25
2022-11-19T15:57:07.825Z,-0.26
2022-11-19T16:02:14.355Z,-0.32
2022-11-19T16:04:31.336Z,-0.34
2022-11-19T16:06:32.298Z,-0.38
2022-11-19T16:08:05.474Z,-0.39
2022-11-19T16:09:30.053Z,-0.39
2022-11-19T16:11:20.744Z,-0.41
2022-11-19T16:13:15.548Z,-0.43
2022-11-19T16:15:08.803Z,-0.44
2022-11-19T16:16:51.073Z,-0.43
2022-11-19T16:18:23.741Z,-0.45
2022-11-19T16:19:45.869Z,-0.47
2022-11-19T16:21:08.404Z,-0.47
2022-11-19T16:22:33.022Z,-0.46
2022-11-19T16:24:14.959Z,-0.48
2022-11-19T16:25:41.064Z,-0.50
2022-11-19T16:27:04.311Z,-0.50
2022-11-19T16:28:30.690Z,-0.51
2022-11-19T16:29:53.709Z,-0.53
2022-11-19T16:31:16.441Z,-0.55
2022-11-19T16:32:38.825Z,-0.56
2022-11-19T16:34:01.240Z,-0.57
2022-11-19T16:35:26.456Z,-0.57
2022-11-19T16:36:52.428Z,-0.59
2022-11-19T16:38:19.165Z,-0.59
2022-11-19T16:39:43.517Z,-0.60
2022-11-19T16:41:25.638Z,-0.60
2022-11-19T16:42:54.008Z,-0.61
2022-11-19T16:44:19.760Z,-0.62
2022-11-19T16:45:47.437Z,-0.63
2022-11-19T16:47:18.591Z,-0.64
2022-11-19T16:49:01.530Z,-0.64
2022-11-19T16:50:31.839Z,-0.64
2022-11-19T16:51:54.679Z,-0.66
2022-11-19T16:53:46.744Z,-0.67
2022-11-19T16:55:40.475Z,-0.70
2022-11-19T16:57:07.699Z,-0.70
2022-11-19T16:58:30.181Z,-0.71
2022-11-19T16:59:54.557Z,-0.72
2022-11-19T17:01:34.308Z,-0.72
2022-11-19T17:02:57.512Z,-0.73
2022-11-19T17:04:21.933Z,-0.73
2022-11-19T17:05:50.702Z,-0.72
2022-11-19T17:07:31.459Z,-0.73
2022-11-19T17:08:59.948Z,-0.73
2022-11-19T17:10:37.242Z,-0.74
2022-11-19T17:12:17.344Z,-0.72
2022-11-19T17:13:42.378Z,-0.72
2022-11-19T17:15:34.772Z,-0.73
2022-11-19T17:16:58.961Z,-0.73
2022-11-19T17:18:34.588Z,-0.74
2022-11-19T17:19:58.245Z,-0.75
2022-11-19T17:21:28.096Z,-0.76
2022-11-19T17:22:50.645Z,-0.77
2022-11-19T17:24:14.409Z,-0.78
2022-11-19T17:25:37.425Z,-0.78
2022-11-19T17:27:00.248Z,-0.80
2022-11-19T17:28:38.271Z,-0.81
2022-11-19T17:30:04.261Z,-0.83
2022-11-19T17:31:28.539Z,-0.84
2022-11-19T17:32:58.158Z,-0.83
2022-11-19T17:34:33.278Z,-0.85
2022-11-19T17:35:56.311Z,-0.85
2022-11-19T17:37:22.035Z,-0.88
2022-11-19T17:38:44.680Z,-0.86
2022-11-19T17:40:09.630Z,-0.87
2022-11-19T17:41:53.194Z,-0.87
2022-11-19T17:43:34.806Z,-0.87
2022-11-19T17:44:57.135Z,-0.88
2022-11-19T17:46:21.870Z,-0.88
2022-11-19T17:47:45.452Z,-0.89
2022-11-19T17:49:10.576Z,-0.90
2022-11-19T17:50:41.361Z,-0.91
2022-11-19T17:52:20.383Z,-0.92
2022-11-19T17:53:51.433Z,-0.93
2022-11-19T17:55:43.184Z,-0.92
2022-11-19T17:57:13.396Z,-0.94
2022-11-19T17:58:46.486Z,-0.93
2022-11-19T18:00:18.334Z,-0.94
2022-11-19T18:01:54.330Z,-0.94
2022-11-19T18:05:43.419Z,-0.94
2022-11-19T18:07:12.394Z,-0.94
2022-11-19T18:08:38.255Z,-0.93
2022-11-19T18:10:10.412Z,-0.91
2022-11-19T18:11:33.448Z,-0.93
2022-11-19T18:12:56.049Z,-0.93
2022-11-19T18:14:21.482Z,-0.93
2022-11-19T18:15:43.994Z,-0.93
2022-11-19T18:17:10.934Z,-0.93
2022-11-19T18:18:35.351Z,-0.94
2022-11-19T18:19:57.814Z,-0.93
2022-11-19T18:21:21.692Z,-0.94
2022-11-19T18:22:43.929Z,-0.95
2022-11-19T18:24:05.294Z,-0.96
2022-11-19T18:25:27.548Z,-0.96
2022-11-19T18:26:49.461Z,-0.97
2022-11-19T18:28:11.875Z,-0.98
2022-11-19T18:29:34.165Z,-0.98
2022-11-19T18:30:56.583Z,-0.98
2022-11-19T18:32:20.069Z,-0.99
2022-11-19T18:33:43.046Z,-1.00
2022-11-19T18:35:05.698Z,-1.01
2022-11-19T18:36:27.764Z,-1.02
2022-11-19T18:37:50.418Z,-1.02
2022-11-19T18:39:16.018Z,-1.05
2022-11-19T18:40:42.376Z,-1.07
2022-11-19T18:42:05.386Z,-1.11
2022-11-19T18:43:45.507Z,-1.12
2022-11-19T18:45:11.428Z,-1.14
2022-11-19T18:46:34.323Z,-1.16
2022-11-19T18:47:58.964Z,-1.16
2022-11-19T18:49:24.457Z,-1.18
2022-11-19T18:50:48.855Z,-1.18
2022-11-19T18:52:15.547Z,-1.20
2022-11-19T18:53:42.013Z,-1.20
2022-11-19T18:55:05.684Z,-1.21
2022-11-19T18:56:28.639Z,-1.22
2022-11-19T18:57:50.995Z,-1.22
2022-11-19T18:59:17.228Z,-1.23
2022-11-19T19:00:42.655Z,-1.23
2022-11-19T19:02:07.482Z,-1.25
2022-11-19T19:03:37.842Z,-1.26
2022-11-19T19:05:08.981Z,-1.28
2022-11-19T19:06:35.808Z,-1.31
2022-11-19T19:07:58.110Z,-1.31
2022-11-19T19:09:21.505Z,-1.31
2022-11-19T19:10:44.393Z,-1.34
2022-11-19T19:12:18.513Z,-1.33
2022-11-19T19:13:43.553Z,-1.35
2022-11-19T19:15:06.986Z,-1.37
2022-11-19T19:16:28.186Z,-1.38
2022-11-19T19:17:53.353Z,-1.40
2022-11-19T19:19:19.379Z,-1.41
2022-11-19T19:20:43.266Z,-1.43
2022-11-19T19:22:06.352Z,-1.45
2022-11-19T19:23:32.922Z,-1.45
2022-11-19T19:24:58.341Z,-1.46
2022-11-19T19:26:20.081Z,-1.47
2022-11-19T19:27:42.233Z,-1.47
2022-11-19T19:29:05.951Z,-1.47
2022-11-19T19:30:28.261Z,-1.48
2022-11-19T19:31:52.924Z,-1.48
2022-11-19T19:33:15.156Z,-1.49
2022-11-19T19:34:38.751Z,-1.48
2022-11-19T19:36:05.568Z,-1.49
2022-11-19T19:37:28.149Z,-1.49
2022-11-19T19:38:50.960Z,-1.50
2022-11-19T19:40:14.483Z,-1.52
2022-11-19T19:41:36.701Z,-1.53
2022-11-19T19:42:59.127Z,-1.54
2022-11-19T19:44:21.697Z,-1.55
2022-11-19T19:45:44.224Z,-1.57
2022-11-19T19:47:07.096Z,-1.58
2022-11-19T19:48:29.838Z,-1.59
2022-11-19T19:49:53.910Z,-1.60
2022-11-19T19:51:17.481Z,-1.60
2022-11-19T19:52:40.172Z,-1.61
2022-11-19T19:54:04.968Z,-1.63
2022-11-19T19:55:28.003Z,-1.64
2022-11-19T19:56:54.139Z,-1.65
2022-11-19T19:58:16.177Z,-1.65
2022-11-19T19:59:38.655Z,-1.66
2022-11-19T20:01:08.597Z,-1.66
2022-11-19T20:02:31.314Z,-1.66
2022-11-19T20:03:57.076Z,-1.65
2022-11-19T20:05:20.990Z,-1.66
2022-11-19T20:06:47.368Z,-1.66
2022-11-19T20:08:09.699Z,-1.65
2022-11-19T20:09:32.221Z,-1.66
2022-11-19T20:10:54.595Z,-1.64
2022-11-19T20:12:16.747Z,-1.63
2022-11-19T20:13:39.866Z,-1.63
2022-11-19T20:15:02.351Z,-1.62
2022-11-19T20:16:26.373Z,-1.62
2022-11-19T20:17:48.908Z,-1.61
2022-11-19T20:19:14.599Z,-1.61